sensor_id;sensor_type;location;lat;lon;timestamp;pressure;altitude;pressure_sealevel;temperature;humidity
12676;BME280;63820;65.654;21.944;2023-02-28T00:02:20;101232.09;;;0.80;70.88
12676;BME280;63820;65.654;21.944;2023-02-28T00:05:04;101230.28;;;0.70;72.72
12676;BME280;63820;65.654;21.944;2023-02-28T00:07:49;101234.44;;;0.55;72.47
12676;BME280;63820;65.654;21.944;2023-02-28T00:10:34;101237.00;;;0.58;71.95
12676;BME280;63820;65.654;21.944;2023-02-28T00:13:18;101227.66;;;0.62;71.57
12676;BME280;63820;65.654;21.944;2023-02-28T00:16:05;101244.84;;;0.74;70.43
12676;BME280;63820;65.654;21.944;2023-02-28T00:18:50;101223.44;;;0.67;71.04
12676;BME280;63820;65.654;21.944;2023-02-28T00:21:34;101229.47;;;0.74;69.52
12676;BME280;63820;65.654;21.944;2023-02-28T00:24:19;101227.75;;;0.71;71.03
12676;BME280;63820;65.654;21.944;2023-02-28T00:27:03;101236.28;;;0.72;70.27
12676;BME280;63820;65.654;21.944;2023-02-28T00:29:47;101227.59;;;0.56;70.89
12676;BME280;63820;65.654;21.944;2023-02-28T00:32:31;101237.88;;;0.59;70.75
12676;BME280;63820;65.654;21.944;2023-02-28T00:35:16;101247.13;;;0.46;72.74
12676;BME280;63820;65.654;21.944;2023-02-28T00:38:00;101255.00;;;0.66;70.61
12676;BME280;63820;65.654;21.944;2023-02-28T00:40:45;101258.41;;;0.65;70.80
12676;BME280;63820;65.654;21.944;2023-02-28T00:43:29;101265.91;;;0.48;72.24
12676;BME280;63820;65.654;21.944;2023-02-28T00:46:13;101271.00;;;0.44;71.90
12676;BME280;63820;65.654;21.944;2023-02-28T00:48:57;101275.94;;;0.30;72.39
12676;BME280;63820;65.654;21.944;2023-02-28T00:51:42;101284.47;;;0.29;72.30
12676;BME280;63820;65.654;21.944;2023-02-28T00:54:26;101272.38;;;0.16;72.90
12676;BME280;63820;65.654;21.944;2023-02-28T00:57:11;101300.44;;;0.10;74.01
12676;BME280;63820;65.654;21.944;2023-02-28T00:59:55;101294.41;;;0.06;73.91
12676;BME280;63820;65.654;21.944;2023-02-28T01:02:39;101297.88;;;0.10;72.13
12676;BME280;63820;65.654;21.944;2023-02-28T01:05:23;101293.00;;;0.28;71.36
12676;BME280;63820;65.654;21.944;2023-02-28T01:08:07;101302.38;;;0.27;70.97
12676;BME280;63820;65.654;21.944;2023-02-28T01:10:52;101301.47;;;0.24;70.81
12676;BME280;63820;65.654;21.944;2023-02-28T01:13:36;101313.53;;;0.34;69.43
12676;BME280;63820;65.654;21.944;2023-02-28T01:16:21;101323.72;;;0.31;70.20
12676;BME280;63820;65.654;21.944;2023-02-28T01:19:06;101334.66;;;0.18;71.43
12676;BME280;63820;65.654;21.944;2023-02-28T01:21:50;101337.03;;;0.04;71.67
12676;BME280;63820;65.654;21.944;2023-02-28T01:24:34;101344.66;;;0.01;72.66
12676;BME280;63820;65.654;21.944;2023-02-28T01:27:18;101352.28;;;-0.05;72.80
12676;BME280;63820;65.654;21.944;2023-02-28T01:30:03;101341.16;;;-0.07;72.74
12676;BME280;63820;65.654;21.944;2023-02-28T01:32:47;101353.00;;;-0.14;72.40
12676;BME280;63820;65.654;21.944;2023-02-28T01:35:35;101351.28;;;-0.15;72.54
12676;BME280;63820;65.654;21.944;2023-02-28T01:38:19;101352.31;;;-0.04;72.77
12676;BME280;63820;65.654;21.944;2023-02-28T01:41:04;101354.91;;;0.03;72.64
12676;BME280;63820;65.654;21.944;2023-02-28T01:46:34;101366.75;;;-0.06;74.03
12676;BME280;63820;65.654;21.944;2023-02-28T01:49:19;101375.78;;;-0.29;75.07
12676;BME280;63820;65.654;21.944;2023-02-28T01:52:03;101367.09;;;-0.40;75.84
12676;BME280;63820;65.654;21.944;2023-02-28T01:54:51;101379.19;;;-0.28;74.63
12676;BME280;63820;65.654;21.944;2023-02-28T01:57:41;101371.25;;;0.14;72.53
12676;BME280;63820;65.654;21.944;2023-02-28T02:00:28;101359.97;;;-0.04;73.35
12676;BME280;63820;65.654;21.944;2023-02-28T02:03:15;101379.28;;;-0.24;74.62
12676;BME280;63820;65.654;21.944;2023-02-28T02:06:02;101372.69;;;-0.62;76.28
12676;BME280;63820;65.654;21.944;2023-02-28T02:08:47;101376.53;;;-0.86;77.39
12676;BME280;63820;65.654;21.944;2023-02-28T02:11:32;101385.59;;;-1.05;80.04
12676;BME280;63820;65.654;21.944;2023-02-28T02:14:43;101383.50;;;-1.24;79.18
12676;BME280;63820;65.654;21.944;2023-02-28T02:17:39;101390.00;;;-1.40;81.94
12676;BME280;63820;65.654;21.944;2023-02-28T02:20:55;101395.88;;;-1.44;82.31
12676;BME280;63820;65.654;21.944;2023-02-28T02:36:08;101405.16;;;-1.05;77.28
12676;BME280;63820;65.654;21.944;2023-02-28T02:39:17;101404.97;;;-1.14;77.44
12676;BME280;63820;65.654;21.944;2023-02-28T02:42:13;101411.97;;;-1.04;76.97
12676;BME280;63820;65.654;21.944;2023-02-28T02:45:03;101414.38;;;-1.12;76.67
12676;BME280;63820;65.654;21.944;2023-02-28T02:47:50;101421.78;;;-1.25;78.51
12676;BME280;63820;65.654;21.944;2023-02-28T02:50:45;101421.38;;;-1.44;79.91
12676;BME280;63820;65.654;21.944;2023-02-28T02:53:35;101426.88;;;-1.25;78.74
12676;BME280;63820;65.654;21.944;2023-02-28T02:56:26;101423.50;;;-1.24;79.28
12676;BME280;63820;65.654;21.944;2023-02-28T02:59:14;101426.94;;;-1.22;80.94
12676;BME280;63820;65.654;21.944;2023-02-28T03:02:08;101429.22;;;-0.91;78.98
12676;BME280;63820;65.654;21.944;2023-02-28T03:04:58;101435.28;;;-0.86;77.79
12676;BME280;63820;65.654;21.944;2023-02-28T03:07:44;101400.03;;;-1.05;78.58
12676;BME280;63820;65.654;21.944;2023-02-28T03:13:36;101441.16;;;-0.90;79.56
12676;BME280;63820;65.654;21.944;2023-02-28T03:26:17;101446.97;;;-0.52;75.78
12676;BME280;63820;65.654;21.944;2023-02-28T03:29:10;101456.13;;;-0.63;75.84
12676;BME280;63820;65.654;21.944;2023-02-28T03:32:04;101455.13;;;-0.71;76.91
12676;BME280;63820;65.654;21.944;2023-02-28T03:34:58;101455.78;;;-0.83;78.48
12676;BME280;63820;65.654;21.944;2023-02-28T03:37:45;101463.19;;;-0.95;79.64
12676;BME280;63820;65.654;21.944;2023-02-28T03:40:32;101457.16;;;-0.99;79.44
12676;BME280;63820;65.654;21.944;2023-02-28T03:43:24;101454.63;;;-0.99;80.41
12676;BME280;63820;65.654;21.944;2023-02-28T03:46:15;101454.75;;;-0.91;81.09
12676;BME280;63820;65.654;21.944;2023-02-28T03:49:32;101455.38;;;-1.03;83.78
12676;BME280;63820;65.654;21.944;2023-02-28T03:52:22;101452.47;;;-1.22;86.78
12676;BME280;63820;65.654;21.944;2023-02-28T03:55:11;101465.28;;;-1.19;86.29
12676;BME280;63820;65.654;21.944;2023-02-28T03:58:07;101467.91;;;-1.16;85.96
12676;BME280;63820;65.654;21.944;2023-02-28T04:01:07;101450.88;;;-1.17;83.94
12676;BME280;63820;65.654;21.944;2023-02-28T04:03:53;101470.94;;;-0.90;81.23
12676;BME280;63820;65.654;21.944;2023-02-28T04:06:38;101472.09;;;-0.75;80.99
12676;BME280;63820;65.654;21.944;2023-02-28T04:09:22;101481.84;;;-0.54;79.40
12676;BME280;63820;65.654;21.944;2023-02-28T04:12:07;101482.69;;;-0.55;79.87
12676;BME280;63820;65.654;21.944;2023-02-28T04:14:51;101480.34;;;-0.44;79.89
12676;BME280;63820;65.654;21.944;2023-02-28T04:17:35;101484.16;;;-0.21;77.84
12676;BME280;63820;65.654;21.944;2023-02-28T04:20:19;101486.84;;;-0.13;77.58
12676;BME280;63820;65.654;21.944;2023-02-28T04:23:03;101497.09;;;-0.12;76.80
12676;BME280;63820;65.654;21.944;2023-02-28T04:25:47;101502.38;;;-0.03;78.65
12676;BME280;63820;65.654;21.944;2023-02-28T04:28:32;101483.56;;;-0.05;77.30
12676;BME280;63820;65.654;21.944;2023-02-28T04:31:17;101493.88;;;0.02;76.67
12676;BME280;63820;65.654;21.944;2023-02-28T04:34:01;101492.72;;;-0.19;78.54
12676;BME280;63820;65.654;21.944;2023-02-28T04:36:46;101490.03;;;-0.25;78.01
12676;BME280;63820;65.654;21.944;2023-02-28T04:39:36;101494.16;;;-0.33;77.46
12676;BME280;63820;65.654;21.944;2023-02-28T04:42:20;101491.56;;;-0.36;76.54
12676;BME280;63820;65.654;21.944;2023-02-28T04:45:05;101498.06;;;-0.53;79.32
12676;BME280;63820;65.654;21.944;2023-02-28T04:47:49;101506.25;;;-0.70;79.38
12676;BME280;63820;65.654;21.944;2023-02-28T04:50:33;101507.72;;;-0.82;80.02
12676;BME280;63820;65.654;21.944;2023-02-28T04:53:18;101519.75;;;-0.77;80.70
12676;BME280;63820;65.654;21.944;2023-02-28T04:56:02;101521.28;;;-0.85;81.27
12676;BME280;63820;65.654;21.944;2023-02-28T04:58:48;101506.91;;;-0.80;81.25
12676;BME280;63820;65.654;21.944;2023-02-28T05:01:33;101516.97;;;-0.87;82.31
12676;BME280;63820;65.654;21.944;2023-02-28T05:04:18;101516.19;;;-0.85;83.02
12676;BME280;63820;65.654;21.944;2023-02-28T05:07:02;101508.63;;;-0.79;81.03
12676;BME280;63820;65.654;21.944;2023-02-28T05:09:47;101529.03;;;-0.80;81.22
12676;BME280;63820;65.654;21.944;2023-02-28T05:12:31;101525.66;;;-0.79;81.92
12676;BME280;63820;65.654;21.944;2023-02-28T05:15:16;101526.28;;;-0.91;81.47
12676;BME280;63820;65.654;21.944;2023-02-28T05:18:00;101541.75;;;-0.83;82.51
12676;BME280;63820;65.654;21.944;2023-02-28T05:20:44;101538.38;;;-0.82;81.28
12676;BME280;63820;65.654;21.944;2023-02-28T05:23:29;101548.47;;;-0.88;84.02
12676;BME280;63820;65.654;21.944;2023-02-28T05:26:13;101547.47;;;-0.95;83.66
12676;BME280;63820;65.654;21.944;2023-02-28T05:28:57;101545.56;;;-1.07;84.50
12676;BME280;63820;65.654;21.944;2023-02-28T05:31:41;101542.84;;;-1.14;85.18
12676;BME280;63820;65.654;21.944;2023-02-28T05:34:26;101556.16;;;-1.27;84.42
12676;BME280;63820;65.654;21.944;2023-02-28T05:37:14;101554.88;;;-1.46;84.92
12676;BME280;63820;65.654;21.944;2023-02-28T05:39:59;101553.72;;;-1.59;85.84
12676;BME280;63820;65.654;21.944;2023-02-28T05:42:43;101556.81;;;-1.72;85.95
12676;BME280;63820;65.654;21.944;2023-02-28T05:45:27;101562.28;;;-1.91;87.79
12676;BME280;63820;65.654;21.944;2023-02-28T05:48:12;101567.75;;;-2.11;89.74
12676;BME280;63820;65.654;21.944;2023-02-28T05:50:57;101563.75;;;-2.34;91.96
12676;BME280;63820;65.654;21.944;2023-02-28T05:53:41;101550.44;;;-2.55;93.81
12676;BME280;63820;65.654;21.944;2023-02-28T05:56:26;101584.41;;;-2.55;96.15
12676;BME280;63820;65.654;21.944;2023-02-28T05:59:11;101583.47;;;-2.58;96.97
12676;BME280;63820;65.654;21.944;2023-02-28T06:01:56;101578.22;;;-2.63;98.61
12676;BME280;63820;65.654;21.944;2023-02-28T06:04:41;101591.34;;;-2.49;100.00
12676;BME280;63820;65.654;21.944;2023-02-28T06:07:25;101577.78;;;-2.48;100.00
12676;BME280;63820;65.654;21.944;2023-02-28T06:10:11;101590.78;;;-2.39;100.00
12676;BME280;63820;65.654;21.944;2023-02-28T06:12:55;101583.34;;;-2.32;100.00
12676;BME280;63820;65.654;21.944;2023-02-28T06:15:43;101592.88;;;-2.24;100.00
12676;BME280;63820;65.654;21.944;2023-02-28T06:18:27;101588.66;;;-2.24;100.00
12676;BME280;63820;65.654;21.944;2023-02-28T06:21:12;101581.25;;;-2.15;100.00
12676;BME280;63820;65.654;21.944;2023-02-28T06:23:56;101592.72;;;-1.98;100.00
12676;BME280;63820;65.654;21.944;2023-02-28T06:26:41;101600.69;;;-1.85;99.64
12676;BME280;63820;65.654;21.944;2023-02-28T06:29:25;101607.13;;;-1.67;98.65
12676;BME280;63820;65.654;21.944;2023-02-28T06:32:09;101592.84;;;-1.58;98.27
12676;BME280;63820;65.654;21.944;2023-02-28T06:34:54;101610.28;;;-1.41;95.99
12676;BME280;63820;65.654;21.944;2023-02-28T06:37:38;101605.47;;;-1.28;94.02
12676;BME280;63820;65.654;21.944;2023-02-28T06:40:22;101604.78;;;-1.21;92.74
12676;BME280;63820;65.654;21.944;2023-02-28T06:43:07;101599.91;;;-1.12;92.69
12676;BME280;63820;65.654;21.944;2023-02-28T06:45:55;101586.31;;;-1.11;90.26
12676;BME280;63820;65.654;21.944;2023-02-28T06:48:40;101596.81;;;-0.96;89.73
12676;BME280;63820;65.654;21.944;2023-02-28T06:51:24;101593.84;;;-0.77;90.22
12676;BME280;63820;65.654;21.944;2023-02-28T06:54:08;101589.94;;;-0.59;88.14
12676;BME280;63820;65.654;21.944;2023-02-28T06:56:53;101589.06;;;-0.60;87.27
12676;BME280;63820;65.654;21.944;2023-02-28T06:59:38;101595.81;;;-0.63;86.32
12676;BME280;63820;65.654;21.944;2023-02-28T07:02:22;101608.91;;;-0.48;87.17
12676;BME280;63820;65.654;21.944;2023-02-28T07:05:06;101612.50;;;-0.39;87.04
12676;BME280;63820;65.654;21.944;2023-02-28T07:07:50;101609.50;;;-0.18;85.19
12676;BME280;63820;65.654;21.944;2023-02-28T07:10:37;101611.50;;;-0.02;84.79
12676;BME280;63820;65.654;21.944;2023-02-28T07:13:23;101607.31;;;0.04;83.54
12676;BME280;63820;65.654;21.944;2023-02-28T07:16:10;101618.72;;;0.21;81.82
12676;BME280;63820;65.654;21.944;2023-02-28T07:18:55;101611.00;;;0.19;79.18
12676;BME280;63820;65.654;21.944;2023-02-28T07:21:39;101614.97;;;0.04;80.27
12676;BME280;63820;65.654;21.944;2023-02-28T07:24:23;101618.00;;;-0.19;80.82
12676;BME280;63820;65.654;21.944;2023-02-28T07:27:12;101624.72;;;-0.24;81.09
12676;BME280;63820;65.654;21.944;2023-02-28T07:29:56;101622.63;;;-0.43;80.70
12676;BME280;63820;65.654;21.944;2023-02-28T07:32:40;101630.41;;;-0.39;82.73
12676;BME280;63820;65.654;21.944;2023-02-28T07:35:24;101618.91;;;-0.17;82.62
12676;BME280;63820;65.654;21.944;2023-02-28T07:38:08;101621.72;;;0.48;79.16
12676;BME280;63820;65.654;21.944;2023-02-28T07:40:53;101621.53;;;1.55;75.24
12676;BME280;63820;65.654;21.944;2023-02-28T07:43:37;101618.06;;;3.82;64.39
12676;BME280;63820;65.654;21.944;2023-02-28T07:46:21;101618.38;;;6.28;57.05
12676;BME280;63820;65.654;21.944;2023-02-28T07:49:05;101624.81;;;7.61;51.97
12676;BME280;63820;65.654;21.944;2023-02-28T07:51:50;101638.19;;;8.55;48.90
12676;BME280;63820;65.654;21.944;2023-02-28T07:54:34;101649.34;;;8.58;47.22
12676;BME280;63820;65.654;21.944;2023-02-28T07:57:18;101639.38;;;8.34;46.53
12676;BME280;63820;65.654;21.944;2023-02-28T08:00:07;101632.34;;;7.80;46.37
12676;BME280;63820;65.654;21.944;2023-02-28T08:02:53;101634.94;;;7.80;46.56
12676;BME280;63820;65.654;21.944;2023-02-28T08:05:41;101641.72;;;7.89;46.59
12676;BME280;63820;65.654;21.944;2023-02-28T08:08:25;101634.63;;;7.33;46.40
12676;BME280;63820;65.654;21.944;2023-02-28T08:11:14;101634.56;;;6.53;48.27
12676;BME280;63820;65.654;21.944;2023-02-28T08:13:58;101632.16;;;6.30;49.80
12676;BME280;63820;65.654;21.944;2023-02-28T08:16:43;101615.94;;;7.09;49.24
12676;BME280;63820;65.654;21.944;2023-02-28T08:19:27;101617.72;;;7.04;48.51
12676;BME280;63820;65.654;21.944;2023-02-28T08:22:12;101629.31;;;6.64;50.22
12676;BME280;63820;65.654;21.944;2023-02-28T08:24:56;101633.31;;;8.87;46.24
12676;BME280;63820;65.654;21.944;2023-02-28T08:27:40;101639.47;;;10.11;44.00
12676;BME280;63820;65.654;21.944;2023-02-28T08:30:24;101634.03;;;11.86;39.82
12676;BME280;63820;65.654;21.944;2023-02-28T08:33:08;101641.22;;;13.83;36.87
12676;BME280;63820;65.654;21.944;2023-02-28T08:35:55;101644.84;;;12.82;36.13
12676;BME280;63820;65.654;21.944;2023-02-28T08:38:40;101649.81;;;13.15;37.17
12676;BME280;63820;65.654;21.944;2023-02-28T08:41:24;101654.91;;;13.19;36.04
12676;BME280;63820;65.654;21.944;2023-02-28T08:44:08;101648.34;;;12.00;36.72
12676;BME280;63820;65.654;21.944;2023-02-28T08:46:51;101659.81;;;12.77;35.33
12676;BME280;63820;65.654;21.944;2023-02-28T08:49:36;101642.22;;;11.72;36.22
12676;BME280;63820;65.654;21.944;2023-02-28T08:52:21;101657.13;;;11.98;36.79
12676;BME280;63820;65.654;21.944;2023-02-28T08:55:06;101650.16;;;15.07;33.89
12676;BME280;63820;65.654;21.944;2023-02-28T08:57:50;101658.44;;;17.03;30.91
12676;BME280;63820;65.654;21.944;2023-02-28T09:00:34;101661.03;;;17.20;30.80
12676;BME280;63820;65.654;21.944;2023-02-28T09:03:21;101653.63;;;16.93;29.69
12676;BME280;63820;65.654;21.944;2023-02-28T09:06:05;101637.09;;;15.64;30.36
12676;BME280;63820;65.654;21.944;2023-02-28T09:08:50;101639.94;;;13.48;31.75
12676;BME280;63820;65.654;21.944;2023-02-28T09:11:35;101645.19;;;12.19;34.49
12676;BME280;63820;65.654;21.944;2023-02-28T09:14:19;101640.16;;;11.23;35.24
12676;BME280;63820;65.654;21.944;2023-02-28T09:17:04;101659.13;;;11.28;35.66
12676;BME280;63820;65.654;21.944;2023-02-28T09:19:48;101662.69;;;13.46;33.50
12676;BME280;63820;65.654;21.944;2023-02-28T09:22:33;101656.47;;;14.60;31.42
12676;BME280;63820;65.654;21.944;2023-02-28T09:25:17;101659.31;;;14.56;31.67
12676;BME280;63820;65.654;21.944;2023-02-28T09:28:02;101657.09;;;16.23;29.92
12676;BME280;63820;65.654;21.944;2023-02-28T09:30:52;101665.19;;;15.62;30.23
12676;BME280;63820;65.654;21.944;2023-02-28T09:33:37;101659.16;;;14.59;31.01
12676;BME280;63820;65.654;21.944;2023-02-28T09:36:22;101659.84;;;13.52;32.45
12676;BME280;63820;65.654;21.944;2023-02-28T09:39:07;101662.78;;;13.43;32.87
12676;BME280;63820;65.654;21.944;2023-02-28T09:41:52;101664.53;;;12.92;33.88
12676;BME280;63820;65.654;21.944;2023-02-28T09:44:40;101655.03;;;12.63;34.33
12676;BME280;63820;65.654;21.944;2023-02-28T09:47:31;101661.59;;;12.49;34.87
12676;BME280;63820;65.654;21.944;2023-02-28T09:53:04;101660.69;;;12.23;34.94
12676;BME280;63820;65.654;21.944;2023-02-28T09:55:54;101657.59;;;12.38;34.78
12676;BME280;63820;65.654;21.944;2023-02-28T09:58:49;101663.69;;;9.71;38.50
12676;BME280;63820;65.654;21.944;2023-02-28T10:04:53;101668.84;;;6.76;44.84
12676;BME280;63820;65.654;21.944;2023-02-28T10:10:51;101664.53;;;5.07;47.67
12676;BME280;63820;65.654;21.944;2023-02-28T10:16:53;101665.41;;;4.79;49.67
12676;BME280;63820;65.654;21.944;2023-02-28T10:20:01;101674.00;;;4.56;50.18
12676;BME280;63820;65.654;21.944;2023-02-28T10:23:18;101675.69;;;4.42;51.67
12676;BME280;63820;65.654;21.944;2023-02-28T10:26:14;101678.22;;;4.22;51.19
12676;BME280;63820;65.654;21.944;2023-02-28T10:29:01;101679.09;;;4.20;53.05
12676;BME280;63820;65.654;21.944;2023-02-28T10:31:46;101685.09;;;4.05;52.77
12676;BME280;63820;65.654;21.944;2023-02-28T10:34:31;101693.63;;;3.98;54.06
12676;BME280;63820;65.654;21.944;2023-02-28T10:37:15;101689.34;;;3.99;54.56
12676;BME280;63820;65.654;21.944;2023-02-28T10:40:00;101683.31;;;3.87;56.23
12676;BME280;63820;65.654;21.944;2023-02-28T10:43:18;101683.25;;;3.75;55.88
12676;BME280;63820;65.654;21.944;2023-02-28T10:49:03;101690.16;;;3.84;55.48
12676;BME280;63820;65.654;21.944;2023-02-28T10:51:54;101691.91;;;3.91;54.65
12676;BME280;63820;65.654;21.944;2023-02-28T10:54:38;101690.16;;;3.82;55.24
12676;BME280;63820;65.654;21.944;2023-02-28T10:57:23;101699.50;;;3.65;57.22
12676;BME280;63820;65.654;21.944;2023-02-28T11:00:21;101694.41;;;3.73;58.25
12676;BME280;63820;65.654;21.944;2023-02-28T11:03:23;101698.63;;;3.63;59.72
12676;BME280;63820;65.654;21.944;2023-02-28T11:09:20;101704.50;;;3.38;60.76
12676;BME280;63820;65.654;21.944;2023-02-28T11:12:17;101691.63;;;3.35;61.79
12676;BME280;63820;65.654;21.944;2023-02-28T11:20:57;101694.97;;;3.21;63.78
12676;BME280;63820;65.654;21.944;2023-02-28T11:23:43;101701.75;;;3.07;61.22
12676;BME280;63820;65.654;21.944;2023-02-28T11:26:45;101691.44;;;3.04;62.08
12676;BME280;63820;65.654;21.944;2023-02-28T11:29:32;101692.25;;;3.00;63.38
12676;BME280;63820;65.654;21.944;2023-02-28T11:32:21;101699.06;;;2.92;63.11
12676;BME280;63820;65.654;21.944;2023-02-28T11:37:53;101704.97;;;2.80;65.17
12676;BME280;63820;65.654;21.944;2023-02-28T11:40:51;101688.56;;;2.65;65.12
12676;BME280;63820;65.654;21.944;2023-02-28T11:44:02;101697.81;;;2.49;65.63
12676;BME280;63820;65.654;21.944;2023-02-28T11:47:11;101684.25;;;2.62;63.93
12676;BME280;63820;65.654;21.944;2023-02-28T11:53:00;101671.34;;;2.57;61.81
12676;BME280;63820;65.654;21.944;2023-02-28T11:55:49;101668.84;;;2.63;60.25
12676;BME280;63820;65.654;21.944;2023-02-28T12:10:30;101661.25;;;2.79;61.49
12676;BME280;63820;65.654;21.944;2023-02-28T12:13:26;101663.06;;;2.92;60.21
12676;BME280;63820;65.654;21.944;2023-02-28T12:16:37;101663.88;;;2.85;59.49
12676;BME280;63820;65.654;21.944;2023-02-28T12:22:31;101675.91;;;2.89;61.54
12676;BME280;63820;65.654;21.944;2023-02-28T12:25:37;101668.25;;;2.98;60.03
12676;BME280;63820;65.654;21.944;2023-02-28T12:28:28;101666.63;;;3.11;60.53
12676;BME280;63820;65.654;21.944;2023-02-28T12:31:24;101664.91;;;3.16;60.28
12676;BME280;63820;65.654;21.944;2023-02-28T12:34:18;101666.59;;;3.06;60.93
12676;BME280;63820;65.654;21.944;2023-02-28T12:37:09;101690.47;;;2.90;61.38
12676;BME280;63820;65.654;21.944;2023-02-28T12:40:01;101682.00;;;3.03;60.25
12676;BME280;63820;65.654;21.944;2023-02-28T12:42:51;101683.72;;;3.04;59.93
12676;BME280;63820;65.654;21.944;2023-02-28T12:45:50;101683.69;;;3.00;59.98
12676;BME280;63820;65.654;21.944;2023-02-28T12:48:45;101694.00;;;3.03;60.52
12676;BME280;63820;65.654;21.944;2023-02-28T12:51:31;101688.91;;;3.13;60.02
12676;BME280;63820;65.654;21.944;2023-02-28T12:54:30;101687.22;;;3.18;59.65
12676;BME280;63820;65.654;21.944;2023-02-28T13:00:25;101686.34;;;3.10;59.53
12676;BME280;63820;65.654;21.944;2023-02-28T13:09:17;101687.94;;;2.93;59.18
12676;BME280;63820;65.654;21.944;2023-02-28T13:12:12;101693.09;;;2.98;60.38
12676;BME280;63820;65.654;21.944;2023-02-28T13:15:08;101693.09;;;2.94;58.60
12676;BME280;63820;65.654;21.944;2023-02-28T13:17:58;101688.72;;;2.86;59.26
12676;BME280;63820;65.654;21.944;2023-02-28T13:20:47;101696.50;;;2.95;59.55
12676;BME280;63820;65.654;21.944;2023-02-28T13:37:47;101702.31;;;2.71;59.15
12676;BME280;63820;65.654;21.944;2023-02-28T13:40:33;101718.47;;;2.58;60.46
12676;BME280;63820;65.654;21.944;2023-02-28T13:49:32;101717.34;;;2.33;63.25
12676;BME280;63820;65.654;21.944;2023-02-28T13:52:21;101712.28;;;2.39;61.85
12676;BME280;63820;65.654;21.944;2023-02-28T13:58:37;101725.94;;;2.35;62.63
12676;BME280;63820;65.654;21.944;2023-02-28T14:07:49;101720.59;;;2.17;62.29
12676;BME280;63820;65.654;21.944;2023-02-28T14:10:42;101681.06;;;1.98;62.72
12676;BME280;63820;65.654;21.944;2023-02-28T14:13:46;101706.00;;;2.13;62.43
12676;BME280;63820;65.654;21.944;2023-02-28T14:16:44;101705.88;;;2.01;63.50
12676;BME280;63820;65.654;21.944;2023-02-28T14:19:30;101702.28;;;1.85;64.81
12676;BME280;63820;65.654;21.944;2023-02-28T14:25:40;101689.13;;;1.60;65.09
12676;BME280;63820;65.654;21.944;2023-02-28T14:31:37;101693.06;;;1.36;66.75
12676;BME280;63820;65.654;21.944;2023-02-28T14:34:37;101691.09;;;1.18;67.15
12676;BME280;63820;65.654;21.944;2023-02-28T14:37:37;101698.50;;;0.96;69.30
12676;BME280;63820;65.654;21.944;2023-02-28T14:40:30;101700.03;;;0.85;70.31
12676;BME280;63820;65.654;21.944;2023-02-28T14:43:22;101715.41;;;0.87;71.88
12676;BME280;63820;65.654;21.944;2023-02-28T14:46:06;101698.00;;;0.68;73.71
12676;BME280;63820;65.654;21.944;2023-02-28T14:48:51;101700.41;;;0.57;75.61
12676;BME280;63820;65.654;21.944;2023-02-28T14:51:35;101703.69;;;0.50;77.78
12676;BME280;63820;65.654;21.944;2023-02-28T14:54:21;101706.00;;;0.36;81.07
12676;BME280;63820;65.654;21.944;2023-02-28T15:00:20;101717.00;;;0.32;81.45
12676;BME280;63820;65.654;21.944;2023-02-28T15:03:36;101710.06;;;0.26;81.85
12676;BME280;63820;65.654;21.944;2023-02-28T15:06:20;101716.00;;;0.24;84.09
12676;BME280;63820;65.654;21.944;2023-02-28T15:11:52;101713.97;;;0.08;83.59
12676;BME280;63820;65.654;21.944;2023-02-28T15:14:38;101711.16;;;-0.08;83.24
12676;BME280;63820;65.654;21.944;2023-02-28T15:17:24;101716.19;;;-0.11;83.36
12676;BME280;63820;65.654;21.944;2023-02-28T15:20:12;101725.41;;;-0.19;82.98
12676;BME280;63820;65.654;21.944;2023-02-28T15:22:57;101724.50;;;-0.21;82.77
12676;BME280;63820;65.654;21.944;2023-02-28T15:25:42;101720.91;;;-0.30;84.22
12676;BME280;63820;65.654;21.944;2023-02-28T15:28:28;101722.31;;;-0.43;86.04
12676;BME280;63820;65.654;21.944;2023-02-28T15:31:23;101731.63;;;-0.47;87.46
12676;BME280;63820;65.654;21.944;2023-02-28T15:34:19;101735.66;;;-0.56;90.79
12676;BME280;63820;65.654;21.944;2023-02-28T15:40:16;101734.53;;;-0.69;92.65
12676;BME280;63820;65.654;21.944;2023-02-28T15:43:06;101730.88;;;-0.79;95.81
12676;BME280;63820;65.654;21.944;2023-02-28T15:46:11;101732.41;;;-0.87;94.59
12676;BME280;63820;65.654;21.944;2023-02-28T15:48:57;101735.56;;;-0.97;94.10
12676;BME280;63820;65.654;21.944;2023-02-28T15:51:41;101736.38;;;-0.98;94.44
12676;BME280;63820;65.654;21.944;2023-02-28T15:54:33;101740.59;;;-1.00;93.90
12676;BME280;63820;65.654;21.944;2023-02-28T15:57:25;101747.16;;;-1.11;94.73
12676;BME280;63820;65.654;21.944;2023-02-28T16:00:15;101753.69;;;-1.22;99.13
12676;BME280;63820;65.654;21.944;2023-02-28T16:03:00;101759.34;;;-1.34;99.58
12676;BME280;63820;65.654;21.944;2023-02-28T16:05:44;101750.59;;;-1.44;100.00
12676;BME280;63820;65.654;21.944;2023-02-28T16:08:28;101764.88;;;-1.50;100.00
12676;BME280;63820;65.654;21.944;2023-02-28T16:11:12;101762.03;;;-1.61;100.00
12676;BME280;63820;65.654;21.944;2023-02-28T16:13:57;101760.88;;;-1.72;100.00
12676;BME280;63820;65.654;21.944;2023-02-28T16:16:46;101754.81;;;-1.76;100.00
12676;BME280;63820;65.654;21.944;2023-02-28T16:19:32;101749.72;;;-1.76;100.00
12676;BME280;63820;65.654;21.944;2023-02-28T16:22:16;101750.81;;;-1.66;100.00
12676;BME280;63820;65.654;21.944;2023-02-28T16:25:00;101751.69;;;-1.66;100.00
12676;BME280;63820;65.654;21.944;2023-02-28T16:27:49;101754.44;;;-1.58;100.00
12676;BME280;63820;65.654;21.944;2023-02-28T16:30:34;101765.41;;;-1.62;100.00
12676;BME280;63820;65.654;21.944;2023-02-28T16:33:18;101749.72;;;-1.76;100.00
12676;BME280;63820;65.654;21.944;2023-02-28T16:36:02;101728.53;;;-2.03;100.00
12676;BME280;63820;65.654;21.944;2023-02-28T16:38:46;101757.66;;;-1.95;100.00